createdAt,value
2018-10-17T00:00:19.031Z,1.00
2018-10-17T00:02:48.159Z,1.00
2018-10-17T00:05:16.883Z,1.00
2018-10-17T00:07:45.558Z,1.00
2018-10-17T00:10:15.240Z,1.00
2018-10-17T00:12:44.308Z,1.00
2018-10-17T00:15:13.020Z,1.00
2018-10-17T00:17:42.085Z,1.00
2018-10-17T00:20:11.223Z,5.50
2018-10-17T00:22:39.934Z,8.40
2018-10-17T00:25:08.490Z,6.80
2018-10-17T00:27:37.744Z,1.90
2018-10-17T00:30:08.877Z,1.00
2018-10-17T00:32:37.925Z,1.00
2018-10-17T00:35:06.397Z,9.10
2018-10-17T00:37:35.640Z,14.70
2018-10-17T00:40:04.058Z,15.30
2018-10-17T00:42:33.084Z,13.90
2018-10-17T00:45:01.796Z,12.80
2018-10-17T00:47:30.875Z,11.80
2018-10-17T00:49:59.556Z,9.30
2018-10-17T00:52:28.261Z,5.60
2018-10-17T00:54:57.280Z,7.20
2018-10-17T00:57:26.197Z,9.80
2018-10-17T00:59:55.220Z,12.30
2018-10-17T01:02:24.061Z,14.00
2018-10-17T01:04:53.139Z,14.90
2018-10-17T01:07:22.188Z,22.60
2018-10-17T01:09:51.200Z,24.90
2018-10-17T01:12:20.209Z,26.80
2018-10-17T01:14:48.995Z,32.20
2018-10-17T01:17:18.054Z,28.30
2018-10-17T01:19:47.090Z,27.50
2018-10-17T01:22:15.796Z,22.30
2018-10-17T01:24:45.142Z,18.70
2018-10-17T01:27:13.930Z,16.70
2018-10-17T01:29:42.605Z,16.70
2018-10-17T01:32:11.776Z,15.60
2018-10-17T01:34:40.794Z,13.70
2018-10-17T01:37:10.511Z,14.40
2018-10-17T01:39:39.013Z,16.20
2018-10-17T01:42:14.025Z,17.30
2018-10-17T01:44:42.986Z,16.70
2018-10-17T01:47:11.805Z,13.80
2018-10-17T01:49:40.952Z,13.60
2018-10-17T01:52:09.979Z,12.90
2018-10-17T01:54:38.632Z,17.20
2018-10-17T01:57:08.037Z,20.50
2018-10-17T01:59:37.163Z,16.60
2018-10-17T02:02:05.501Z,23.10
2018-10-17T02:04:34.172Z,22.30
2018-10-17T02:07:02.901Z,19.10
2018-10-17T02:09:32.028Z,18.50
2018-10-17T02:12:01.025Z,15.20
2018-10-17T02:17:09.530Z,19.60
2018-10-17T02:19:38.625Z,24.70
2018-10-17T02:22:07.314Z,23.50
2018-10-17T02:24:36.412Z,24.20
2018-10-17T02:27:04.844Z,21.30
2018-10-17T02:29:33.889Z,20.30
2018-10-17T02:32:02.933Z,22.30
2018-10-17T02:34:35.873Z,23.70
2018-10-17T02:37:04.687Z,23.20
2018-10-17T02:39:33.870Z,22.70
2018-10-17T02:42:05.635Z,25.40
2018-10-17T02:44:34.394Z,27.70
2018-10-17T02:47:03.482Z,35.90
2018-10-17T02:49:32.666Z,38.10
2018-10-17T02:52:01.033Z,34.80
2018-10-17T02:54:29.915Z,31.10
2018-10-17T02:56:58.999Z,35.70
2018-10-17T02:59:27.762Z,35.40
2018-10-17T03:01:56.786Z,40.10
2018-10-17T03:04:25.833Z,40.40
2018-10-17T03:06:55.082Z,40.60
2018-10-17T03:09:24.349Z,40.60
2018-10-17T03:11:53.401Z,40.00
2018-10-17T03:14:22.453Z,37.80
2018-10-17T03:16:51.758Z,36.90
2018-10-17T03:19:20.962Z,37.70
2018-10-17T03:21:49.810Z,37.00
2018-10-17T03:24:18.531Z,36.80
2018-10-17T03:26:47.593Z,44.00
2018-10-17T03:29:16.992Z,49.40
2018-10-17T03:31:46.402Z,52.10
2018-10-17T03:34:15.474Z,53.80
2018-10-17T03:36:44.560Z,54.60
2018-10-17T03:39:13.255Z,52.30
2018-10-17T03:41:42.287Z,48.90
2018-10-17T03:44:11.295Z,45.90
2018-10-17T03:46:40.220Z,47.80
2018-10-17T03:49:09.264Z,50.50
2018-10-17T03:51:38.577Z,59.10
2018-10-17T03:54:07.583Z,47.90
2018-10-17T03:56:36.581Z,44.30
2018-10-17T03:59:05.837Z,42.90
2018-10-17T04:01:35.079Z,41.80
2018-10-17T04:04:03.779Z,43.80
2018-10-17T04:06:32.827Z,47.00
2018-10-17T04:09:01.206Z,50.50
2018-10-17T04:11:30.422Z,51.10
2018-10-17T04:13:59.785Z,53.40
2018-10-17T04:16:28.863Z,53.20
2018-10-17T04:18:57.607Z,53.00
2018-10-17T04:21:26.473Z,52.80
2018-10-17T04:23:55.196Z,53.20
2018-10-17T04:26:23.989Z,53.00
2018-10-17T04:28:53.047Z,52.90
2018-10-17T04:31:22.231Z,54.30
2018-10-17T04:33:51.249Z,57.60
2018-10-17T04:36:20.036Z,56.70
2018-10-17T04:38:49.200Z,58.70
2018-10-17T04:41:18.156Z,59.40
2018-10-17T04:43:47.339Z,58.50
2018-10-17T04:46:16.041Z,57.00
2018-10-17T04:48:44.762Z,56.50
2018-10-17T04:51:13.573Z,55.20
2018-10-17T04:53:42.226Z,57.20
2018-10-17T04:56:11.261Z,57.00
2018-10-17T04:58:40.282Z,59.00
2018-10-17T05:01:08.967Z,62.60
2018-10-17T05:03:37.528Z,66.60
2018-10-17T05:06:06.532Z,64.30
2018-10-17T05:08:35.644Z,63.00
2018-10-17T05:11:04.848Z,62.40
2018-10-17T05:13:33.710Z,68.50
2018-10-17T05:16:02.395Z,70.60
2018-10-17T05:18:31.407Z,73.60
2018-10-17T05:21:00.396Z,70.30
2018-10-17T05:23:29.440Z,68.80
2018-10-17T05:25:58.494Z,62.70
2018-10-17T05:28:27.235Z,67.00
2018-10-17T05:30:56.277Z,66.90
2018-10-17T05:33:25.303Z,68.20
2018-10-17T05:35:54.506Z,67.80
2018-10-17T05:38:23.577Z,64.30
2018-10-17T05:40:52.308Z,63.80
2018-10-17T05:43:21.238Z,62.70
2018-10-17T05:45:50.336Z,63.60
2018-10-17T05:48:19.535Z,61.60
2018-10-17T05:50:48.227Z,65.20
2018-10-17T05:53:17.230Z,66.90
2018-10-17T05:55:46.416Z,69.40
2018-10-17T05:58:15.440Z,68.90
2018-10-17T06:00:44.481Z,68.30
2018-10-17T06:03:13.549Z,64.30
2018-10-17T06:05:42.237Z,59.60
2018-10-17T06:08:11.260Z,63.30
2018-10-17T06:10:40.277Z,69.40
2018-10-17T06:13:09.022Z,68.50
2018-10-17T06:15:37.976Z,70.80
2018-10-17T06:18:07.279Z,63.20
2018-10-17T06:20:36.342Z,62.30
2018-10-17T06:23:05.357Z,55.30
2018-10-17T06:25:34.669Z,49.20
2018-10-17T06:28:03.871Z,45.70
2018-10-17T06:30:32.635Z,40.20
2018-10-17T06:33:01.902Z,31.40
2018-10-17T06:35:30.618Z,31.40
2018-10-17T06:37:59.311Z,27.30
2018-10-17T06:40:28.220Z,28.00
2018-10-17T06:42:57.263Z,22.40
2018-10-17T06:45:25.842Z,16.20
2018-10-17T06:47:54.866Z,10.10
2018-10-17T06:50:23.901Z,1.10
2018-10-17T06:52:52.620Z,8.50
2018-10-17T06:55:21.630Z,7.90
2018-10-17T06:57:50.702Z,1.00
2018-10-17T07:00:19.492Z,1.00
2018-10-17T07:02:48.531Z,1.00
2018-10-17T07:05:17.268Z,1.00
2018-10-17T07:07:46.156Z,1.00
2018-10-17T07:10:14.849Z,1.00
2018-10-17T07:12:43.857Z,1.00
2018-10-17T07:15:12.630Z,1.00
2018-10-17T07:17:41.421Z,1.00
2018-10-17T07:20:10.379Z,1.00
2018-10-17T07:22:38.995Z,1.00
2018-10-17T07:25:07.456Z,1.00
2018-10-17T07:27:36.827Z,1.00
2018-10-17T07:30:06.401Z,1.00
2018-10-17T07:32:35.195Z,1.00
2018-10-17T07:35:03.349Z,1.00
2018-10-17T07:37:31.829Z,99.90
2018-10-17T07:40:00.636Z,79.20
2018-10-17T07:42:29.043Z,99.90
2018-10-17T07:44:57.497Z,99.90
2018-10-17T07:47:25.905Z,99.90
2018-10-17T07:49:54.335Z,99.90
2018-10-17T07:52:23.161Z,1.00
2018-10-17T07:54:51.941Z,99.90
2018-10-17T07:57:20.694Z,1.00
2018-10-17T07:59:49.474Z,29.70
2018-10-17T08:02:18.499Z,99.90
2018-10-17T08:04:47.297Z,1.00
2018-10-17T08:07:16.349Z,55.00
2018-10-17T08:09:45.109Z,99.90
2018-10-17T08:12:13.201Z,1.00
2018-10-17T08:14:42.424Z,1.00
2018-10-17T08:17:12.018Z,99.90
2018-10-17T08:19:40.827Z,1.00
2018-10-17T08:22:09.593Z,1.00
2018-10-17T08:24:38.050Z,1.00
2018-10-17T08:27:06.811Z,1.00
2018-10-17T08:29:35.561Z,99.90
2018-10-17T08:32:03.993Z,99.90
2018-10-17T08:34:33.224Z,99.90
2018-10-17T08:37:02.280Z,99.90
2018-10-17T08:39:30.611Z,95.30
2018-10-17T08:41:59.353Z,78.20
2018-10-17T08:44:28.185Z,1.00
2018-10-17T08:46:56.610Z,1.00
2018-10-17T08:49:25.109Z,1.00
2018-10-17T08:51:54.250Z,1.00
2018-10-17T08:54:23.039Z,1.00
2018-10-17T08:56:51.997Z,1.00
2018-10-17T08:59:21.355Z,1.00
2018-10-17T09:01:50.007Z,1.00
2018-10-17T09:04:19.128Z,1.00
2018-10-17T09:06:47.838Z,1.00
2018-10-17T09:09:16.690Z,1.00
2018-10-17T09:11:45.789Z,1.00
2018-10-17T09:14:15.092Z,1.00
2018-10-17T09:16:44.696Z,1.00
2018-10-17T09:19:13.810Z,1.00
2018-10-17T09:21:42.621Z,1.00
2018-10-17T09:24:11.507Z,1.00
2018-10-17T09:26:39.947Z,1.00
2018-10-17T09:29:08.751Z,1.00
2018-10-17T09:31:37.497Z,1.00
2018-10-17T09:34:05.654Z,1.00
2018-10-17T09:36:34.208Z,1.00
2018-10-17T09:39:02.277Z,1.00
2018-10-17T09:41:30.694Z,1.00
2018-10-17T09:43:59.445Z,1.00
2018-10-17T09:46:28.769Z,1.00
2018-10-17T09:48:57.505Z,1.00
2018-10-17T09:51:26.258Z,1.00
2018-10-17T09:53:55.029Z,1.00
2018-10-17T09:56:23.588Z,1.00
2018-10-17T09:58:52.492Z,1.00
2018-10-17T10:01:26.598Z,1.00
2018-10-17T10:03:55.349Z,1.00
2018-10-17T10:06:24.833Z,1.00
2018-10-17T10:08:53.685Z,1.00
2018-10-17T10:11:22.131Z,1.00
2018-10-17T10:13:50.474Z,1.00
2018-10-17T10:16:18.946Z,1.00
2018-10-17T10:18:47.556Z,1.00
2018-10-17T10:21:16.298Z,1.00
2018-10-17T10:23:44.394Z,1.00
2018-10-17T10:26:13.073Z,1.00
2018-10-17T10:28:42.374Z,1.00
2018-10-17T10:31:10.865Z,1.00
2018-10-17T10:33:39.870Z,1.00
2018-10-17T10:36:08.747Z,1.00
2018-10-17T10:38:37.349Z,1.00
2018-10-17T10:41:05.828Z,1.00
2018-10-17T10:43:34.641Z,1.00
2018-10-17T10:46:03.315Z,1.00
2018-10-17T10:48:31.753Z,1.00
2018-10-17T10:51:00.524Z,1.00
2018-10-17T10:53:29.526Z,1.00
2018-10-17T10:55:58.319Z,1.00
2018-10-17T10:58:27.113Z,1.00
2018-10-17T11:00:56.073Z,1.00
2018-10-17T11:03:25.178Z,1.00
2018-10-17T11:05:53.726Z,1.00
2018-10-17T11:08:22.122Z,1.00
2018-10-17T11:10:50.614Z,1.00
2018-10-17T11:13:19.263Z,1.00
2018-10-17T11:15:47.689Z,1.00
2018-10-17T11:18:15.855Z,1.00
2018-10-17T11:20:44.270Z,1.00
2018-10-17T11:23:13.504Z,1.00
2018-10-17T11:25:41.911Z,1.00
2018-10-17T11:28:10.314Z,1.00
2018-10-17T11:30:39.244Z,1.00
2018-10-17T11:33:07.951Z,1.00
2018-10-17T11:35:36.749Z,1.00
2018-10-17T11:38:05.195Z,1.00
2018-10-17T11:40:34.564Z,1.00
2018-10-17T11:43:02.867Z,1.00
2018-10-17T11:45:31.811Z,1.00
2018-10-17T11:48:01.040Z,1.00
2018-10-17T11:50:29.737Z,1.00
2018-10-17T11:52:58.664Z,1.00
2018-10-17T11:55:27.561Z,1.00
2018-10-17T11:57:55.887Z,1.00
2018-10-17T12:00:24.935Z,1.00
2018-10-17T12:02:53.093Z,1.00
2018-10-17T12:05:22.492Z,99.90
2018-10-17T12:07:51.309Z,1.00
2018-10-17T12:10:19.853Z,1.00
2018-10-17T12:12:48.437Z,1.00
2018-10-17T12:15:17.325Z,99.90
2018-10-17T12:17:46.039Z,99.90
2018-10-17T12:20:15.289Z,99.90
2018-10-17T12:22:45.086Z,99.90
2018-10-17T12:25:13.851Z,99.90
2018-10-17T12:27:42.368Z,99.90
2018-10-17T12:30:13.473Z,1.00
2018-10-17T12:32:42.410Z,99.90
2018-10-17T12:35:11.681Z,99.90
2018-10-17T12:37:40.566Z,99.90
2018-10-17T12:40:09.854Z,99.90
2018-10-17T12:42:38.826Z,99.90
2018-10-17T12:45:07.078Z,99.90
2018-10-17T12:47:35.994Z,99.90
2018-10-17T12:50:04.921Z,99.90
2018-10-17T12:52:33.607Z,99.90
2018-10-17T12:55:02.675Z,99.90
2018-10-17T12:57:31.382Z,99.90
2018-10-17T13:00:01.246Z,1.00
2018-10-17T13:02:29.722Z,99.90
2018-10-17T13:04:59.019Z,99.90
2018-10-17T13:07:27.769Z,99.90
2018-10-17T13:09:56.270Z,99.90
2018-10-17T13:12:26.143Z,99.90
2018-10-17T13:14:54.881Z,99.90
2018-10-17T13:17:23.442Z,99.90
2018-10-17T13:19:52.149Z,99.90
2018-10-17T13:22:20.869Z,99.90
2018-10-17T13:24:49.653Z,99.90
2018-10-17T13:27:18.083Z,99.90
2018-10-17T13:29:46.468Z,99.90
2018-10-17T13:32:14.897Z,99.90
2018-10-17T13:34:43.645Z,99.90
2018-10-17T13:37:12.886Z,99.90
2018-10-17T13:39:41.912Z,99.90
2018-10-17T13:42:10.815Z,99.90
2018-10-17T13:44:39.561Z,99.90
2018-10-17T13:47:08.397Z,99.90
2018-10-17T13:49:37.520Z,99.90
2018-10-17T13:52:06.008Z,99.90
2018-10-17T13:54:39.238Z,99.90
2018-10-17T13:57:07.817Z,99.90
2018-10-17T13:59:37.291Z,99.90
2018-10-17T14:02:05.492Z,99.90
2018-10-17T14:04:33.762Z,99.90
2018-10-17T14:07:02.583Z,99.90
2018-10-17T14:09:31.236Z,99.90
2018-10-17T14:11:59.357Z,99.90
2018-10-17T14:14:28.635Z,99.90
2018-10-17T14:16:57.429Z,99.90
2018-10-17T14:19:26.117Z,99.90
2018-10-17T14:21:55.039Z,99.90
2018-10-17T14:24:23.405Z,99.90
2018-10-17T14:26:51.887Z,99.90
2018-10-17T14:29:20.897Z,99.90
2018-10-17T14:31:49.922Z,99.90
2018-10-17T14:34:18.717Z,99.90
2018-10-17T14:36:47.742Z,99.90
2018-10-17T14:39:16.607Z,99.90
2018-10-17T14:41:45.439Z,99.90
2018-10-17T14:44:14.149Z,99.90
2018-10-17T14:46:42.889Z,99.90
2018-10-17T14:49:11.285Z,99.90
2018-10-17T14:51:39.704Z,99.90
2018-10-17T14:54:07.761Z,99.90
2018-10-17T14:56:36.509Z,99.90
2018-10-17T14:59:05.330Z,99.90
2018-10-17T15:01:33.872Z,99.90
2018-10-17T15:04:03.090Z,99.90
2018-10-17T15:06:31.493Z,99.90
2018-10-17T15:09:00.265Z,99.90
2018-10-17T15:11:29.269Z,99.90
2018-10-17T15:13:58.277Z,99.90
2018-10-17T15:16:26.503Z,99.90
2018-10-17T15:18:55.270Z,99.90
2018-10-17T15:21:23.692Z,1.00
2018-10-17T15:23:52.423Z,99.90
2018-10-17T15:26:20.472Z,99.90
2018-10-17T15:28:48.889Z,99.90
2018-10-17T15:31:17.671Z,99.90
2018-10-17T15:33:46.299Z,1.00
2018-10-17T15:36:15.309Z,1.00
2018-10-17T15:38:44.349Z,1.00
2018-10-17T15:41:12.773Z,1.00
2018-10-17T15:43:41.567Z,1.00
2018-10-17T15:46:10.461Z,1.00
2018-10-17T15:48:39.182Z,1.00
2018-10-17T15:51:07.631Z,1.00
2018-10-17T15:53:36.562Z,1.00
2018-10-17T15:56:04.896Z,1.00
2018-10-17T15:58:33.389Z,1.00
2018-10-17T16:01:02.193Z,1.00
2018-10-17T16:03:31.009Z,1.00
2018-10-17T16:05:59.805Z,1.00
2018-10-17T16:08:28.740Z,1.00
2018-10-17T16:10:59.431Z,1.00
2018-10-17T16:13:28.182Z,1.00
2018-10-17T16:15:56.889Z,1.00
2018-10-17T16:18:25.686Z,1.00
2018-10-17T16:20:54.478Z,1.00
2018-10-17T16:23:23.168Z,1.00
2018-10-17T16:25:51.589Z,99.90
2018-10-17T16:28:20.158Z,99.90
2018-10-17T16:30:48.665Z,99.90
2018-10-17T16:33:17.570Z,99.90
2018-10-17T16:35:46.275Z,99.90
2018-10-17T16:38:14.762Z,99.90
2018-10-17T16:40:43.761Z,1.00
2018-10-17T16:43:12.685Z,1.00
2018-10-17T16:45:41.462Z,1.00
2018-10-17T16:48:09.926Z,1.00
2018-10-17T16:50:38.917Z,99.90
2018-10-17T16:53:07.777Z,1.00
2018-10-17T16:55:36.548Z,99.90
2018-10-17T16:58:04.994Z,1.00
2018-10-17T17:00:33.955Z,99.90
2018-10-17T17:03:02.149Z,1.00
2018-10-17T17:05:31.023Z,1.00
2018-10-17T17:07:59.414Z,99.90
2018-10-17T17:10:27.977Z,1.00
2018-10-17T17:12:56.749Z,99.90
2018-10-17T17:15:25.163Z,1.00
2018-10-17T17:17:54.037Z,99.90
2018-10-17T17:20:22.657Z,1.00
2018-10-17T17:22:50.857Z,1.00
2018-10-17T17:25:20.115Z,99.90
2018-10-17T17:27:49.724Z,1.00
2018-10-17T17:30:19.153Z,99.90
2018-10-17T17:32:48.912Z,1.00
2018-10-17T17:35:17.670Z,1.00
2018-10-17T17:37:46.385Z,1.00
2018-10-17T17:40:15.357Z,1.00
2018-10-17T17:42:46.965Z,1.00
2018-10-17T17:45:15.449Z,99.90
2018-10-17T17:47:44.172Z,99.90
2018-10-17T17:50:12.581Z,1.00
2018-10-17T17:52:40.884Z,99.90
2018-10-17T17:55:09.823Z,99.90
2018-10-17T17:57:38.625Z,1.00
2018-10-17T18:00:07.198Z,1.00
2018-10-17T18:02:35.949Z,99.90
2018-10-17T18:05:04.334Z,99.90
2018-10-17T18:07:32.846Z,99.90
2018-10-17T18:10:01.938Z,14.20
2018-10-17T18:12:31.237Z,99.90
2018-10-17T18:15:00.274Z,99.90
2018-10-17T18:17:29.133Z,99.90
2018-10-17T18:19:58.136Z,99.90
2018-10-17T18:22:26.907Z,99.90
2018-10-17T18:24:56.150Z,99.90
2018-10-17T18:27:24.860Z,99.90
2018-10-17T18:29:54.480Z,99.90
2018-10-17T18:32:23.638Z,99.90
2018-10-17T18:34:52.662Z,99.90
2018-10-17T18:37:21.479Z,1.00
2018-10-17T18:39:50.235Z,1.00
2018-10-17T18:42:20.717Z,1.00
2018-10-17T18:44:49.564Z,1.00
2018-10-17T18:47:18.502Z,1.00
2018-10-17T18:49:47.233Z,1.00
2018-10-17T18:52:15.940Z,1.00
2018-10-17T18:54:45.064Z,1.00
2018-10-17T18:57:14.235Z,1.00
2018-10-17T18:59:43.481Z,1.00
2018-10-17T19:02:11.926Z,1.00
2018-10-17T19:04:40.856Z,1.00
2018-10-17T19:07:10.110Z,1.00
2018-10-17T19:09:39.170Z,1.00
2018-10-17T19:12:07.988Z,1.00
2018-10-17T19:14:37.065Z,1.00
2018-10-17T19:17:05.468Z,1.00
2018-10-17T19:19:34.772Z,1.00
2018-10-17T19:22:03.249Z,1.00
2018-10-17T19:24:31.945Z,1.00
2018-10-17T19:27:00.855Z,1.00
2018-10-17T19:29:30.157Z,1.00
2018-10-17T19:31:58.839Z,1.00
2018-10-17T19:34:27.833Z,1.00
2018-10-17T19:37:03.162Z,1.00
2018-10-17T19:39:32.235Z,1.00
2018-10-17T19:42:00.980Z,1.00
2018-10-17T19:44:30.062Z,1.00
2018-10-17T19:46:59.130Z,1.00
2018-10-17T19:49:28.191Z,1.00
2018-10-17T19:51:57.241Z,1.00
2018-10-17T19:54:26.241Z,1.00
2018-10-17T19:56:55.343Z,1.00
2018-10-17T19:59:24.658Z,1.00
2018-10-17T20:01:53.409Z,1.00
2018-10-17T20:04:22.570Z,1.00
2018-10-17T20:06:50.941Z,1.00
2018-10-17T20:09:20.121Z,1.00
2018-10-17T20:11:49.210Z,1.00
2018-10-17T20:14:20.393Z,1.00
2018-10-17T20:16:49.490Z,1.00
2018-10-17T20:19:18.201Z,1.00
2018-10-17T20:21:46.921Z,1.00
2018-10-17T20:24:15.647Z,1.00
2018-10-17T20:26:44.526Z,1.00
2018-10-17T20:29:13.251Z,1.00
2018-10-17T20:31:42.064Z,1.00
2018-10-17T20:34:11.097Z,1.00
2018-10-17T20:36:40.141Z,1.00
2018-10-17T20:39:11.084Z,1.00
2018-10-17T20:41:40.597Z,1.00
2018-10-17T20:44:09.428Z,1.00
2018-10-17T20:46:38.398Z,1.00
2018-10-17T20:49:07.850Z,1.00
2018-10-17T20:51:36.512Z,1.00
2018-10-17T20:54:06.603Z,1.00
2018-10-17T20:56:35.781Z,1.00
2018-10-17T20:59:04.470Z,1.00
2018-10-17T21:01:34.125Z,1.00
2018-10-17T21:04:03.204Z,1.00
2018-10-17T21:06:32.386Z,1.00
2018-10-17T21:09:01.393Z,1.00
2018-10-17T21:11:30.474Z,4.20
2018-10-17T21:14:00.212Z,11.00
2018-10-17T21:16:29.434Z,15.30
2018-10-17T21:18:58.471Z,18.00
2018-10-17T21:21:27.482Z,21.20
2018-10-17T21:23:56.674Z,22.90
2018-10-17T21:26:25.418Z,19.30
2018-10-17T21:28:54.130Z,13.30
2018-10-17T21:31:23.117Z,10.50
2018-10-17T21:33:52.030Z,11.30
2018-10-17T21:36:21.169Z,17.40
2018-10-17T21:38:50.150Z,23.30
2018-10-17T21:41:19.169Z,23.10
2018-10-17T21:43:48.184Z,22.70
2018-10-17T21:46:17.001Z,25.20
2018-10-17T21:48:46.057Z,24.10
2018-10-17T21:51:15.077Z,27.70
2018-10-17T21:53:43.757Z,30.00
2018-10-17T21:56:12.325Z,31.10
2018-10-17T21:58:41.493Z,32.10
2018-10-17T22:01:10.187Z,29.60
2018-10-17T22:03:39.257Z,28.90
2018-10-17T22:06:07.929Z,25.90
2018-10-17T22:08:36.626Z,23.10
2018-10-17T22:11:05.854Z,18.80
2018-10-17T22:13:34.867Z,19.80
2018-10-17T22:16:03.888Z,26.20
2018-10-17T22:18:32.606Z,29.50
2018-10-17T22:21:01.316Z,30.50
2018-10-17T22:23:30.177Z,26.50
2018-10-17T22:25:59.271Z,31.20
2018-10-17T22:28:28.163Z,36.40
2018-10-17T22:30:57.208Z,38.30
2018-10-17T22:33:25.666Z,34.60
2018-10-17T22:35:54.381Z,39.10
2018-10-17T22:38:23.383Z,42.70
2018-10-17T22:40:52.094Z,40.20
2018-10-17T22:43:20.929Z,38.80
2018-10-17T22:45:49.936Z,39.30
2018-10-17T22:48:18.346Z,40.10
2018-10-17T22:50:47.398Z,43.20
2018-10-17T22:53:16.424Z,43.10
2018-10-17T22:55:46.974Z,39.60
2018-10-17T22:58:15.715Z,42.00
2018-10-17T23:00:44.778Z,46.20
2018-10-17T23:03:14.113Z,41.00
2018-10-17T23:05:43.508Z,37.70
2018-10-17T23:08:12.760Z,41.10
2018-10-17T23:10:41.986Z,44.00
2018-10-17T23:13:10.713Z,47.40
2018-10-17T23:15:39.810Z,50.10
2018-10-17T23:18:08.217Z,47.30
2018-10-17T23:20:37.236Z,51.00
2018-10-17T23:23:06.353Z,48.50
2018-10-17T23:25:35.329Z,50.10
2018-10-17T23:28:04.021Z,50.10
2018-10-17T23:30:33.101Z,44.20
2018-10-17T23:33:02.166Z,48.10
2018-10-17T23:35:31.170Z,50.50
2018-10-17T23:37:59.872Z,51.00
2018-10-17T23:40:29.131Z,48.90
2018-10-17T23:42:57.893Z,52.20
2018-10-17T23:45:26.958Z,51.50
2018-10-17T23:47:55.691Z,49.40
2018-10-17T23:50:24.571Z,50.70
2018-10-17T23:52:53.617Z,53.40
2018-10-17T23:55:22.975Z,54.20
2018-10-17T23:57:51.732Z,55.60
